Time;durP1;ratioP1;P1;durP2;ratioP2;P2;SDS_P1;SDS_P2;PMS_P1;PMS_P2;Temp;Humidity;BMP_temperature;BMP_pressure;BME280_temperature;BME280_humidity;BME280_pressure;Samples;Min_cycle;Max_cycle;Signal;HPM_P1;HPM_P2
2022/09/18 00:01:09;;;;;;;706.97;531.55;;;14.40;99.90;;;;;;4969609;28;20553;-76
2022/09/18 00:03:36;;;;;;;703.13;524.88;;;14.40;99.90;;;;;;4970243;28;20701;-75
2022/09/18 00:06:06;;;;;;;685.20;520.20;;;14.40;99.90;;;;;;4962101;28;20194;-75
2022/09/18 00:08:33;;;;;;;710.35;529.92;;;14.40;99.90;;;;;;4968672;28;20218;-75
2022/09/18 00:11:04;;;;;;;712.55;521.88;;;14.40;99.90;;;;;;4974260;28;20194;-76
2022/09/18 00:13:31;;;;;;;712.50;521.28;;;14.40;99.90;;;;;;4971614;28;20289;-76
2022/09/18 00:15:58;;;;;;;703.45;513.35;;;14.40;99.90;;;;;;4966242;28;20195;-75
2022/09/18 00:18:24;;;;;;;710.97;520.67;;;14.40;99.90;;;;;;4967241;28;20237;-75
2022/09/18 00:20:51;;;;;;;699.08;520.88;;;14.40;99.90;;;;;;4972986;28;20205;-76
2022/09/18 00:23:18;;;;;;;712.42;540.00;;;14.40;99.90;;;;;;4969703;28;20611;-76
2022/09/18 00:25:44;;;;;;;709.53;517.03;;;14.40;99.90;;;;;;4970274;28;20669;-75
2022/09/18 00:28:12;;;;;;;708.80;517.80;;;14.40;99.90;;;;;;4972800;28;20198;-77
2022/09/18 00:30:39;;;;;;;695.55;518.15;;;14.40;99.90;;;;;;4967373;28;20728;-76
2022/09/18 00:33:06;;;;;;;696.30;527.17;;;14.40;99.90;;;;;;4970657;28;20240;-76
2022/09/18 00:35:32;;;;;;;688.13;509.52;;;14.40;99.90;;;;;;4978095;28;20333;-77
2022/09/18 00:37:59;;;;;;;701.17;527.90;;;14.40;99.90;;;;;;4970182;28;20208;-76
2022/09/18 00:40:26;;;;;;;714.40;531.53;;;14.40;99.90;;;;;;4969303;28;20201;-76
2022/09/18 00:42:52;;;;;;;703.50;490.70;;;14.40;99.90;;;;;;4968820;28;20194;-76
2022/09/18 00:45:21;;;;;;;704.35;525.22;;;14.40;99.90;;;;;;4971588;28;20199;-76
2022/09/18 00:47:51;;;;;;;703.15;522.83;;;14.40;99.90;;;;;;4971471;28;20252;-76
2022/09/18 00:50:22;;;;;;;713.33;527.90;;;14.40;99.90;;;;;;4976430;28;20225;-76
2022/09/18 00:52:52;;;;;;;711.55;523.92;;;14.40;99.90;;;;;;4970287;28;20202;-76
2022/09/18 00:55:23;;;;;;;708.15;520.10;;;14.30;99.90;;;;;;4975808;28;20216;-76
2022/09/18 00:57:53;;;;;;;707.80;500.23;;;14.30;99.90;;;;;;4981357;28;20276;-76
2022/09/18 01:00:22;;;;;;;709.40;519.70;;;14.40;99.90;;;;;;4982073;28;20629;-76
2022/09/18 01:02:49;;;;;;;691.90;511.65;;;14.30;99.90;;;;;;4972231;28;20212;-76
2022/09/18 01:05:22;;;;;;;688.95;505.70;;;14.30;99.90;;;;;;4973571;28;20608;-76
2022/09/18 01:08:00;;;;;;;691.08;523.10;;;14.30;99.90;;;;;;4969404;28;20272;-76
2022/09/18 01:10:41;;;;;;;688.38;513.47;;;14.30;99.90;;;;;;4972839;28;20220;-75
2022/09/18 01:13:15;;;;;;;696.20;518.47;;;14.30;99.90;;;;;;4972623;28;20605;-75
2022/09/18 01:15:51;;;;;;;706.55;528.15;;;14.30;99.90;;;;;;4975352;28;20197;-76
2022/09/18 01:18:26;;;;;;;707.95;516.38;;;14.30;99.90;;;;;;4977555;28;20208;-76
2022/09/18 01:21:04;;;;;;;711.90;514.90;;;14.30;99.90;;;;;;4973197;28;20704;-76
2022/09/18 01:24:33;;;;;;;705.63;507.33;;;14.30;99.90;;;;;;4971431;28;20201;-76
2022/09/18 01:27:03;;;;;;;700.15;489.35;;;14.30;99.90;;;;;;4912109;29;20222;-76
2022/09/18 01:29:45;;;;;;;703.50;486.20;;;14.30;99.90;;;;;;4911475;29;20774;-75
2022/09/18 01:32:20;;;;;;;707.13;493.95;;;14.30;99.90;;;;;;4940725;28;20596;-75
2022/09/18 01:34:54;;;;;;;712.25;521.45;;;14.30;99.90;;;;;;4977342;28;20197;-76
2022/09/18 01:37:27;;;;;;;694.97;511.75;;;14.30;99.90;;;;;;4976245;28;20212;-75
2022/09/18 01:40:00;;;;;;;689.17;506.55;;;14.30;99.90;;;;;;4984254;28;20202;-76
2022/09/18 01:42:29;;;;;;;684.53;501.58;;;14.30;99.90;;;;;;4978432;28;20206;-75
2022/09/18 01:45:01;;;;;;;687.20;509.08;;;14.30;99.90;;;;;;4971933;28;20201;-75
2022/09/18 01:47:32;;;;;;;672.67;490.25;;;14.30;99.90;;;;;;4974508;28;20297;-75
2022/09/18 01:50:01;;;;;;;680.03;517.50;;;14.20;99.90;;;;;;4970307;28;20313;-75
2022/09/18 01:52:32;;;;;;;680.85;511.30;;;14.20;99.90;;;;;;4970189;28;21258;-75
2022/09/18 01:55:02;;;;;;;678.88;507.83;;;14.20;99.90;;;;;;4972354;28;20568;-75
2022/09/18 01:57:36;;;;;;;673.50;499.60;;;14.30;99.90;;;;;;4974879;28;20200;-75
2022/09/18 02:00:07;;;;;;;678.70;504.38;;;14.20;99.90;;;;;;4971854;28;20231;-75
2022/09/18 02:02:37;;;;;;;674.38;490.42;;;14.20;99.90;;;;;;4975724;28;20204;-74
2022/09/18 02:05:08;;;;;;;674.05;505.48;;;14.20;99.90;;;;;;4972469;28;20209;-74
2022/09/18 02:07:45;;;;;;;673.88;509.17;;;14.20;99.90;;;;;;4968150;28;20772;-75
2022/09/18 02:10:12;;;;;;;672.00;508.15;;;14.20;99.90;;;;;;4974335;28;20276;-74
2022/09/18 02:12:42;;;;;;;671.13;494.60;;;14.20;99.90;;;;;;4976721;28;20205;-74
2022/09/18 02:15:14;;;;;;;668.00;496.80;;;14.20;99.90;;;;;;4977687;28;20208;-74
2022/09/18 02:17:46;;;;;;;672.97;501.35;;;14.20;99.90;;;;;;4975392;28;20740;-75
2022/09/18 02:20:19;;;;;;;665.60;497.63;;;14.20;99.90;;;;;;4970977;28;20653;-75
2022/09/18 02:22:50;;;;;;;669.55;495.85;;;14.20;99.90;;;;;;4970345;28;20194;-75
2022/09/18 02:25:21;;;;;;;667.55;497.30;;;14.20;99.90;;;;;;4980081;28;20293;-74
2022/09/18 02:27:50;;;;;;;671.97;509.23;;;14.20;99.90;;;;;;4968647;28;20665;-74
2022/09/18 02:30:19;;;;;;;670.22;508.75;;;14.20;99.90;;;;;;4968988;28;20214;-75
2022/09/18 02:32:46;;;;;;;662.75;502.13;;;14.20;99.90;;;;;;4976970;28;20189;-74
2022/09/18 02:35:14;;;;;;;671.38;512.92;;;14.20;99.90;;;;;;4977667;28;20201;-74
2022/09/18 02:37:49;;;;;;;666.17;507.95;;;14.20;99.90;;;;;;4971738;28;20232;-74
2022/09/18 02:40:27;;;;;;;670.25;497.80;;;14.20;99.90;;;;;;4976867;28;20221;-74
2022/09/18 02:43:08;;;;;;;667.72;494.88;;;14.20;99.90;;;;;;4980363;28;20205;-75
2022/09/18 02:45:42;;;;;;;669.90;495.63;;;14.20;99.90;;;;;;4972262;28;20739;-75
2022/09/18 02:48:27;;;;;;;666.20;490.02;;;14.20;99.90;;;;;;4968927;28;20598;-75
2022/09/18 02:51:00;;;;;;;668.28;490.63;;;14.20;99.90;;;;;;4972155;28;20220;-76
2022/09/18 02:53:31;;;;;;;668.45;494.30;;;14.20;99.90;;;;;;4971427;28;20788;-75
2022/09/18 02:56:02;;;;;;;667.17;492.17;;;14.20;99.90;;;;;;4981828;28;20660;-75
2022/09/18 02:58:35;;;;;;;660.75;495.52;;;14.20;99.90;;;;;;4971683;28;20217;-75
2022/09/18 03:01:06;;;;;;;667.50;500.13;;;14.20;99.90;;;;;;4963923;28;20437;-76
2022/09/18 03:03:33;;;;;;;667.33;501.05;;;14.20;99.90;;;;;;4976003;28;20258;-75
2022/09/18 03:06:02;;;;;;;665.95;502.20;;;14.20;99.90;;;;;;4969693;28;20201;-76
2022/09/18 03:08:29;;;;;;;657.88;502.63;;;14.20;99.90;;;;;;4968729;28;20197;-74
2022/09/18 03:10:55;;;;;;;647.20;492.08;;;14.20;99.90;;;;;;4977563;28;20216;-75
2022/09/18 03:13:22;;;;;;;650.58;508.00;;;14.20;99.90;;;;;;4983774;28;20201;-75
2022/09/18 03:15:49;;;;;;;644.83;494.67;;;14.20;99.90;;;;;;4974885;28;20190;-74
2022/09/18 03:18:17;;;;;;;650.47;509.55;;;14.20;99.90;;;;;;4977485;28;20205;-74
2022/09/18 03:20:43;;;;;;;643.33;495.05;;;14.20;99.90;;;;;;4976607;28;20197;-74
2022/09/18 03:23:10;;;;;;;642.40;498.65;;;14.10;99.90;;;;;;4973180;28;20207;-75
2022/09/18 03:25:37;;;;;;;647.38;502.05;;;14.20;99.90;;;;;;4975658;28;20198;-74
2022/09/18 03:28:04;;;;;;;640.38;491.98;;;14.20;99.90;;;;;;4971322;28;20198;-74
2022/09/18 03:30:31;;;;;;;654.00;500.90;;;14.20;99.90;;;;;;4970234;28;20226;-74
2022/09/18 03:32:58;;;;;;;654.05;499.13;;;14.20;99.90;;;;;;4971529;28;20208;-77
2022/09/18 03:35:26;;;;;;;656.63;503.73;;;14.20;99.90;;;;;;4974058;28;20201;-75
2022/09/18 03:37:54;;;;;;;656.95;500.33;;;14.20;99.90;;;;;;4972396;28;20198;-75
2022/09/18 03:40:21;;;;;;;667.65;504.73;;;14.10;99.90;;;;;;4972743;28;20206;-76
2022/09/18 03:42:49;;;;;;;686.90;502.80;;;14.10;99.90;;;;;;4978383;28;20194;-75
2022/09/18 03:45:16;;;;;;;696.13;499.02;;;14.10;99.90;;;;;;4970486;28;20225;-75
2022/09/18 03:47:43;;;;;;;688.58;467.67;;;14.10;99.90;;;;;;4973465;28;20290;-75
2022/09/18 03:50:10;;;;;;;693.88;485.70;;;14.10;99.90;;;;;;4969940;28;20225;-75
2022/09/18 03:52:38;;;;;;;692.35;488.98;;;14.10;99.90;;;;;;4972307;28;20605;-75
2022/09/18 03:55:05;;;;;;;695.15;502.38;;;14.10;99.90;;;;;;4979611;28;20700;-75
2022/09/18 03:57:32;;;;;;;697.60;499.13;;;14.10;99.90;;;;;;4978731;28;20615;-74
2022/09/18 03:59:59;;;;;;;698.58;499.63;;;14.10;99.90;;;;;;4977157;28;20726;-75
2022/09/18 04:02:25;;;;;;;702.03;507.08;;;14.10;99.90;;;;;;4973415;28;20201;-76
2022/09/18 04:04:52;;;;;;;700.17;492.67;;;14.10;99.90;;;;;;4972921;28;20209;-75
2022/09/18 04:07:19;;;;;;;672.92;487.92;;;14.10;99.90;;;;;;4971314;28;20264;-76
2022/09/18 04:09:47;;;;;;;669.63;505.02;;;14.10;99.90;;;;;;4972241;28;20221;-75
2022/09/18 04:12:14;;;;;;;669.90;494.17;;;14.10;99.90;;;;;;4974267;28;20205;-76
2022/09/18 04:14:40;;;;;;;701.97;509.90;;;14.10;99.90;;;;;;4968755;28;20206;-76
2022/09/18 04:17:07;;;;;;;699.40;492.98;;;14.10;99.90;;;;;;4973432;28;20224;-76
2022/09/18 04:19:33;;;;;;;699.85;497.88;;;14.10;99.90;;;;;;4969828;28;20210;-76
2022/09/18 04:22:00;;;;;;;691.25;504.15;;;14.10;99.90;;;;;;4967816;28;20609;-75
2022/09/18 04:24:27;;;;;;;698.80;489.10;;;14.10;99.90;;;;;;4972288;28;20247;-75
2022/09/18 04:26:55;;;;;;;700.47;496.48;;;14.10;99.90;;;;;;4973377;28;20194;-76
2022/09/18 04:29:22;;;;;;;701.08;498.48;;;14.10;99.90;;;;;;4966421;28;20609;-76
2022/09/18 04:31:49;;;;;;;698.78;489.67;;;14.10;99.90;;;;;;4966874;28;20202;-75
2022/09/18 04:34:18;;;;;;;701.88;494.88;;;14.10;99.90;;;;;;4972338;28;20201;-76
2022/09/18 04:36:45;;;;;;;697.90;493.45;;;14.10;99.90;;;;;;4968911;28;20198;-75
2022/09/18 04:39:11;;;;;;;696.38;493.30;;;14.10;99.90;;;;;;4978851;28;20197;-75
2022/09/18 04:41:38;;;;;;;695.53;503.73;;;14.10;99.90;;;;;;4974109;28;20205;-75
2022/09/18 04:44:07;;;;;;;701.92;499.30;;;14.10;99.90;;;;;;4984672;28;20525;-75
2022/09/18 04:46:33;;;;;;;698.72;491.38;;;14.10;99.90;;;;;;4972774;28;20285;-75
2022/09/18 04:49:00;;;;;;;698.53;492.45;;;14.10;99.90;;;;;;4976543;28;20267;-75
2022/09/18 04:51:26;;;;;;;698.03;496.23;;;14.10;99.90;;;;;;4970069;28;20272;-73
2022/09/18 04:53:53;;;;;;;704.63;500.35;;;14.10;99.90;;;;;;4971484;28;20198;-75
2022/09/18 04:56:20;;;;;;;696.55;494.70;;;14.10;99.90;;;;;;4973875;28;20193;-76
2022/09/18 04:58:46;;;;;;;700.67;497.13;;;14.10;99.90;;;;;;4970216;28;20665;-74
2022/09/18 05:01:15;;;;;;;698.70;493.17;;;14.10;99.90;;;;;;4969662;28;20201;-75
2022/09/18 05:03:41;;;;;;;698.00;485.40;;;14.10;99.90;;;;;;4971912;28;20201;-74
2022/09/18 05:06:08;;;;;;;699.90;492.13;;;14.10;99.90;;;;;;4969568;28;20204;-76
2022/09/18 05:08:36;;;;;;;687.20;469.55;;;14.10;99.90;;;;;;4967376;28;20202;-76
2022/09/18 05:11:03;;;;;;;698.50;494.02;;;14.10;99.90;;;;;;4970014;28;20223;-76
2022/09/18 05:13:30;;;;;;;696.65;494.73;;;14.00;99.90;;;;;;4971218;28;20716;-76
2022/09/18 05:15:57;;;;;;;697.35;494.08;;;14.10;99.90;;;;;;4973187;28;20271;-75
2022/09/18 05:18:25;;;;;;;695.58;486.83;;;14.00;99.90;;;;;;4973298;28;20279;-77
2022/09/18 05:20:53;;;;;;;701.45;501.38;;;14.10;99.90;;;;;;4970481;28;20205;-76
2022/09/18 05:23:20;;;;;;;700.90;490.38;;;14.00;99.90;;;;;;4971826;28;20193;-76
2022/09/18 05:25:47;;;;;;;696.63;484.25;;;14.00;99.90;;;;;;4978474;28;20205;-75
2022/09/18 05:28:14;;;;;;;696.05;487.85;;;14.00;99.90;;;;;;4979995;28;20198;-74
2022/09/18 05:30:41;;;;;;;694.47;480.17;;;14.00;99.90;;;;;;4968494;28;20700;-76
2022/09/18 05:33:09;;;;;;;682.45;474.70;;;14.00;99.90;;;;;;4966179;28;20252;-76
2022/09/18 05:35:38;;;;;;;687.58;482.25;;;14.00;99.90;;;;;;4971675;28;20202;-76
2022/09/18 05:38:05;;;;;;;697.67;492.10;;;14.00;99.90;;;;;;4967046;28;20194;-76
2022/09/18 05:40:34;;;;;;;695.22;494.02;;;14.00;99.90;;;;;;4973973;28;20205;-76
2022/09/18 05:43:01;;;;;;;692.97;487.02;;;14.10;99.90;;;;;;4983342;28;20248;-76
2022/09/18 05:45:28;;;;;;;695.97;490.48;;;14.00;99.90;;;;;;4969176;28;20229;-76
2022/09/18 05:47:56;;;;;;;694.25;490.73;;;14.00;99.90;;;;;;4975338;28;20189;-75
2022/09/18 05:50:23;;;;;;;694.33;488.50;;;14.00;99.90;;;;;;4982807;28;20302;-75
2022/09/18 05:52:58;;;;;;;693.53;489.80;;;14.00;99.90;;;;;;4981404;28;20197;-76
2022/09/18 05:55:27;;;;;;;688.20;467.83;;;14.00;99.90;;;;;;4986141;28;20287;-77
2022/09/18 05:57:54;;;;;;;681.75;476.40;;;14.00;99.90;;;;;;4970878;28;20264;-76
2022/09/18 06:00:20;;;;;;;672.17;462.08;;;14.00;99.90;;;;;;4973113;28;20218;-76
2022/09/18 06:02:53;;;;;;;683.78;483.55;;;14.00;99.90;;;;;;4971944;28;20240;-76
2022/09/18 06:05:19;;;;;;;685.70;493.52;;;14.00;99.90;;;;;;4980668;28;20248;-76
2022/09/18 06:07:46;;;;;;;678.15;488.45;;;14.00;99.90;;;;;;4969168;28;20669;-76
2022/09/18 06:10:14;;;;;;;671.70;482.90;;;14.00;99.90;;;;;;4965243;28;20257;-76
2022/09/18 06:12:41;;;;;;;658.30;482.63;;;14.00;99.90;;;;;;4975902;28;20205;-76
2022/09/18 06:15:09;;;;;;;656.25;490.98;;;14.00;99.90;;;;;;4988886;28;20668;-76
2022/09/18 06:17:36;;;;;;;653.13;483.08;;;14.00;99.90;;;;;;4968349;28;20244;-77
2022/09/18 06:20:03;;;;;;;657.63;483.65;;;14.00;99.90;;;;;;4976549;28;20255;-76
2022/09/18 06:22:31;;;;;;;665.22;486.77;;;14.00;99.90;;;;;;4976069;28;20202;-76
2022/09/18 06:24:58;;;;;;;672.58;499.92;;;14.00;99.90;;;;;;4972587;28;20194;-76
2022/09/18 06:27:26;;;;;;;687.47;492.90;;;14.00;99.90;;;;;;4974816;28;20190;-77
2022/09/18 06:29:52;;;;;;;696.75;493.70;;;14.00;99.90;;;;;;4968698;28;20202;-77
2022/09/18 06:32:20;;;;;;;698.28;483.02;;;14.00;99.90;;;;;;4969870;28;20255;-77
2022/09/18 06:34:47;;;;;;;701.88;481.73;;;14.00;99.90;;;;;;4974523;28;20209;-76
2022/09/18 06:37:15;;;;;;;696.75;467.67;;;14.00;99.90;;;;;;4971391;28;20338;-75
2022/09/18 06:39:42;;;;;;;705.53;492.55;;;14.00;99.90;;;;;;4957874;28;20202;-76
2022/09/18 06:42:08;;;;;;;703.63;487.55;;;14.00;99.90;;;;;;4989670;28;20201;-77
2022/09/18 06:44:36;;;;;;;699.45;479.23;;;14.10;99.90;;;;;;4992213;28;20204;-77
2022/09/18 06:47:03;;;;;;;693.78;477.50;;;14.00;99.90;;;;;;4974000;28;20194;-76
2022/09/18 06:49:30;;;;;;;701.70;487.38;;;14.10;99.90;;;;;;4969003;28;20256;-76
2022/09/18 06:51:56;;;;;;;701.60;494.27;;;14.00;99.90;;;;;;4968863;28;20316;-76
2022/09/18 06:54:23;;;;;;;696.45;488.70;;;14.10;99.90;;;;;;4965734;28;20661;-76
2022/09/18 06:56:50;;;;;;;698.70;480.77;;;14.10;99.90;;;;;;4976134;28;20197;-76
2022/09/18 06:59:17;;;;;;;696.33;482.15;;;14.10;99.90;;;;;;4973857;28;20248;-76
2022/09/18 07:01:46;;;;;;;696.97;487.92;;;14.10;99.90;;;;;;4965384;28;20207;-77
2022/09/18 07:04:13;;;;;;;700.90;488.50;;;14.10;99.90;;;;;;4967033;28;20193;-76
2022/09/18 07:06:39;;;;;;;700.53;489.75;;;14.10;99.90;;;;;;4979045;28;20213;-75
2022/09/18 07:09:06;;;;;;;701.00;492.38;;;14.10;99.90;;;;;;4967672;28;20722;-75
2022/09/18 07:11:35;;;;;;;699.13;489.00;;;14.10;99.90;;;;;;4980520;28;20243;-76
2022/09/18 07:14:02;;;;;;;697.40;486.27;;;14.10;99.90;;;;;;4968230;28;20206;-75
2022/09/18 07:16:28;;;;;;;697.10;485.50;;;14.10;99.90;;;;;;4966200;28;20211;-77
2022/09/18 07:18:56;;;;;;;696.45;464.90;;;14.10;99.90;;;;;;4978906;28;20197;-76
2022/09/18 07:21:23;;;;;;;701.25;483.33;;;14.10;99.90;;;;;;4986345;28;20201;-76
2022/09/18 07:23:50;;;;;;;698.92;488.98;;;14.10;99.90;;;;;;4977031;28;20263;-76
2022/09/18 07:26:17;;;;;;;696.67;481.70;;;14.10;99.90;;;;;;4980702;28;20189;-76
2022/09/18 07:28:44;;;;;;;701.97;484.13;;;14.10;99.90;;;;;;4981563;28;20281;-76
2022/09/18 07:31:11;;;;;;;696.42;476.27;;;14.10;99.90;;;;;;4979909;28;20284;-76
2022/09/18 07:33:39;;;;;;;698.53;493.20;;;14.10;99.90;;;;;;4980533;28;20678;-76
2022/09/18 07:36:07;;;;;;;694.70;485.25;;;14.10;99.90;;;;;;4983770;28;20198;-76
2022/09/18 07:38:34;;;;;;;701.97;496.88;;;14.10;99.90;;;;;;4979353;28;20193;-76
2022/09/18 07:41:02;;;;;;;700.28;488.10;;;14.10;99.90;;;;;;4974357;28;20292;-77
2022/09/18 07:43:28;;;;;;;695.92;481.48;;;14.10;99.90;;;;;;4980826;28;20202;-76
2022/09/18 07:45:55;;;;;;;700.33;490.98;;;14.10;99.90;;;;;;4978447;28;20249;-76
2022/09/18 07:48:22;;;;;;;698.47;490.27;;;14.20;99.90;;;;;;4980876;28;20216;-76
2022/09/18 07:50:49;;;;;;;695.05;486.80;;;14.20;99.90;;;;;;4984988;28;20248;-76
2022/09/18 07:53:17;;;;;;;696.97;490.05;;;14.20;99.90;;;;;;4977781;28;20253;-76
2022/09/18 07:55:46;;;;;;;696.90;490.45;;;14.20;99.90;;;;;;4980861;28;20197;-76
2022/09/18 07:58:13;;;;;;;699.10;486.92;;;14.20;99.90;;;;;;4970384;28;20206;-76
2022/09/18 08:00:39;;;;;;;697.75;492.45;;;14.20;99.90;;;;;;4972984;28;20206;-76
2022/09/18 08:03:08;;;;;;;693.17;466.05;;;14.20;99.90;;;;;;4969677;28;20205;-75
2022/09/18 08:05:35;;;;;;;699.40;494.95;;;14.20;99.90;;;;;;4970938;28;20256;-77
2022/09/18 08:08:03;;;;;;;696.72;487.25;;;14.20;99.90;;;;;;4968506;28;20256;-73
2022/09/18 08:10:32;;;;;;;696.33;483.65;;;14.20;99.90;;;;;;4978983;28;20210;-73
2022/09/18 08:12:59;;;;;;;692.00;472.45;;;14.20;99.90;;;;;;4972324;28;20561;-76
2022/09/18 08:15:26;;;;;;;698.97;490.23;;;14.20;99.90;;;;;;4971253;28;20201;-75
2022/09/18 08:17:53;;;;;;;696.80;486.40;;;14.20;99.90;;;;;;4963871;28;20229;-73
2022/09/18 08:20:19;;;;;;;697.08;490.52;;;14.20;99.90;;;;;;4959341;28;20245;-75
2022/09/18 08:22:46;;;;;;;701.88;499.95;;;14.30;99.90;;;;;;4965998;28;20570;-74
2022/09/18 08:25:13;;;;;;;697.08;494.10;;;14.30;99.90;;;;;;4978594;28;20204;-75
2022/09/18 08:27:41;;;;;;;695.72;497.67;;;14.30;99.90;;;;;;4976614;28;20198;-74
2022/09/18 08:30:10;;;;;;;694.95;478.50;;;14.30;99.90;;;;;;4967493;28;20214;-74
2022/09/18 08:32:38;;;;;;;698.55;494.63;;;14.30;99.90;;;;;;4969763;28;20237;-75
2022/09/18 08:35:06;;;;;;;697.45;505.40;;;14.30;99.90;;;;;;4963033;28;20225;-75
2022/09/18 08:37:33;;;;;;;695.28;499.30;;;14.30;99.90;;;;;;4970163;28;20197;-74
2022/09/18 08:40:00;;;;;;;692.22;491.10;;;14.30;99.90;;;;;;4969876;28;20191;-74
2022/09/18 08:42:36;;;;;;;694.60;495.42;;;14.30;99.90;;;;;;4959814;28;20201;-74
2022/09/18 08:45:24;;;;;;;695.70;493.17;;;14.30;99.90;;;;;;4969311;28;20198;-75
2022/09/18 08:47:55;;;;;;;692.30;488.17;;;14.30;99.90;;;;;;4970298;28;20206;-74
2022/09/18 08:50:24;;;;;;;696.70;501.23;;;14.30;99.90;;;;;;4970046;28;20205;-76
2022/09/18 08:52:56;;;;;;;693.50;492.02;;;14.30;99.90;;;;;;4971884;28;20275;-74
2022/09/18 08:55:26;;;;;;;695.03;487.85;;;14.30;99.90;;;;;;4963802;28;20221;-74
2022/09/18 08:57:55;;;;;;;697.35;495.75;;;14.30;99.90;;;;;;4971136;28;20201;-74
2022/09/18 09:00:26;;;;;;;692.22;487.58;;;14.30;99.90;;;;;;4972645;28;20206;-74
2022/09/18 09:02:56;;;;;;;690.85;468.90;;;14.30;99.90;;;;;;4972001;28;20193;-74
2022/09/18 09:05:30;;;;;;;699.97;492.73;;;14.30;99.90;;;;;;4976092;28;20263;-74
2022/09/18 09:08:22;;;;;;;696.95;491.05;;;14.30;99.90;;;;;;4962959;28;20761;-75
2022/09/18 09:11:01;;;;;;;699.20;493.92;;;14.30;99.90;;;;;;4981505;28;20204;-74
2022/09/18 09:14:04;;;;;;;695.47;488.35;;;14.30;99.90;;;;;;4974303;28;20667;-75
2022/09/18 09:16:40;;;;;;;695.67;483.05;;;14.30;99.90;;;;;;4969698;28;20236;-74
2022/09/18 09:19:21;;;;;;;697.42;490.73;;;14.30;99.90;;;;;;4981712;28;20231;-74
2022/09/18 09:21:57;;;;;;;694.08;474.55;;;14.30;99.90;;;;;;4982260;28;20197;-74
2022/09/18 09:24:31;;;;;;;694.67;489.92;;;14.30;99.90;;;;;;4981751;28;20204;-74
2022/09/18 09:26:59;;;;;;;691.30;483.02;;;14.30;99.90;;;;;;4977327;28;20206;-74
2022/09/18 09:29:29;;;;;;;701.33;521.25;;;14.30;99.90;;;;;;4970707;28;20569;-74
2022/09/18 09:31:59;;;;;;;694.30;494.08;;;14.30;99.90;;;;;;4976355;28;20224;-74
2022/09/18 09:34:30;;;;;;;696.17;503.67;;;14.30;99.90;;;;;;4976450;28;20206;-74
2022/09/18 09:37:02;;;;;;;696.28;495.95;;;14.40;99.90;;;;;;4972878;28;20210;-74
2022/09/18 09:39:33;;;;;;;697.33;498.85;;;14.40;99.90;;;;;;4980726;28;20201;-74
2022/09/18 09:42:06;;;;;;;694.90;493.35;;;14.40;99.90;;;;;;4977638;28;20205;-74
2022/09/18 09:44:37;;;;;;;696.92;502.17;;;14.40;99.90;;;;;;4978870;28;20270;-78
2022/09/18 09:47:15;;;;;;;696.60;494.38;;;14.40;99.90;;;;;;4968053;28;20280;-82
2022/09/18 09:49:50;;;;;;;702.50;519.30;;;14.30;99.90;;;;;;4964437;28;20276;-73
2022/09/18 09:52:22;;;;;;;696.95;498.23;;;14.40;99.90;;;;;;4974511;28;20212;-74
2022/09/18 09:54:53;;;;;;;697.80;497.60;;;14.40;99.90;;;;;;4975343;28;20245;-76
2022/09/18 09:57:26;;;;;;;694.67;491.63;;;14.40;99.90;;;;;;4982397;28;20268;-75
2022/09/18 09:59:59;;;;;;;695.70;491.23;;;14.40;99.90;;;;;;4980603;28;20661;-75
2022/09/18 10:02:34;;;;;;;695.03;491.77;;;14.40;99.90;;;;;;4967694;28;20293;-74
2022/09/18 10:05:14;;;;;;;696.33;500.95;;;14.40;99.90;;;;;;4965199;28;20201;-74
2022/09/18 10:07:45;;;;;;;694.85;496.85;;;14.40;99.90;;;;;;4976394;28;20206;-76
2022/09/18 10:10:22;;;;;;;694.92;503.40;;;14.40;99.90;;;;;;4979238;28;20592;-74
2022/09/18 10:12:52;;;;;;;692.95;483.70;;;14.40;99.90;;;;;;4974383;28;20209;-73
2022/09/18 10:15:22;;;;;;;697.03;499.48;;;14.40;99.90;;;;;;4983316;28;20209;-76
2022/09/18 10:17:55;;;;;;;693.95;495.58;;;14.40;99.90;;;;;;4971776;28;20316;-77
2022/09/18 10:20:26;;;;;;;692.83;500.83;;;14.40;99.90;;;;;;4975419;28;20201;-76
2022/09/18 10:22:53;;;;;;;692.38;496.52;;;14.40;99.90;;;;;;4972357;28;20673;-75
2022/09/18 10:25:30;;;;;;;693.20;498.70;;;14.40;99.90;;;;;;4976808;28;20280;-75
2022/09/18 10:27:56;;;;;;;698.33;498.27;;;14.40;99.90;;;;;;4969683;28;20217;-76
2022/09/18 10:30:23;;;;;;;698.60;501.67;;;14.40;99.90;;;;;;4976764;28;20208;-75
2022/09/18 10:32:51;;;;;;;696.00;498.92;;;14.40;99.90;;;;;;4970084;28;20221;-76
2022/09/18 10:35:41;;;;;;;699.47;513.85;;;14.50;99.90;;;;;;4976172;28;20291;-75
2022/09/18 10:38:28;;;;;;;692.78;506.65;;;14.50;99.90;;;;;;4976020;28;20285;-76
2022/09/18 10:40:55;;;;;;;689.53;498.25;;;14.50;99.90;;;;;;4986985;28;20500;-75
2022/09/18 10:43:21;;;;;;;691.95;511.40;;;14.50;99.90;;;;;;4979773;28;20268;-76
2022/09/18 10:45:52;;;;;;;687.35;494.48;;;14.50;99.90;;;;;;4973988;28;20257;-76
2022/09/18 10:48:23;;;;;;;689.67;513.80;;;14.50;99.90;;;;;;4975033;28;20202;-77
2022/09/18 10:50:53;;;;;;;689.53;510.08;;;14.50;99.90;;;;;;4976450;28;20245;-77
2022/09/18 10:53:28;;;;;;;690.90;511.88;;;14.50;99.90;;;;;;4973175;28;20312;-76
2022/09/18 10:55:56;;;;;;;686.22;497.30;;;14.50;99.90;;;;;;4972842;28;20297;-74
2022/09/18 10:58:28;;;;;;;687.72;487.35;;;14.50;99.90;;;;;;4978972;28;20208;-76
2022/09/18 11:00:59;;;;;;;691.10;509.70;;;14.50;99.90;;;;;;4979068;28;20205;-76
2022/09/18 11:03:45;;;;;;;683.72;508.05;;;14.50;99.90;;;;;;4969721;28;20209;-77
2022/09/18 11:06:17;;;;;;;681.20;505.58;;;14.50;99.90;;;;;;4976154;28;20209;-78
2022/09/18 11:08:47;;;;;;;684.75;506.10;;;14.50;99.90;;;;;;4976398;28;20198;-76
2022/09/18 11:11:22;;;;;;;695.90;513.60;;;14.50;99.90;;;;;;4984134;28;20264;-77
2022/09/18 11:13:52;;;;;;;691.03;510.38;;;14.60;99.90;;;;;;4972362;28;20204;-76
2022/09/18 11:16:24;;;;;;;692.05;508.98;;;14.60;99.90;;;;;;4971338;28;20225;-76
2022/09/18 11:19:06;;;;;;;695.22;520.15;;;14.60;99.90;;;;;;4975657;28;20211;-77
2022/09/18 11:21:33;;;;;;;696.63;522.83;;;14.60;99.90;;;;;;4979388;28;20193;-76
2022/09/18 11:24:05;;;;;;;692.00;504.85;;;14.60;99.90;;;;;;4971771;28;20194;-76
2022/09/18 11:26:32;;;;;;;690.80;511.17;;;14.60;99.90;;;;;;4982776;28;20201;-75
2022/09/18 11:29:05;;;;;;;691.92;511.45;;;14.60;99.90;;;;;;4966697;28;20198;-75
2022/09/18 11:31:42;;;;;;;690.45;503.58;;;14.60;99.90;;;;;;4976543;28;20255;-75
2022/09/18 11:34:29;;;;;;;689.70;507.65;;;14.60;99.90;;;;;;4976062;28;20196;-75
2022/09/18 11:37:00;;;;;;;686.45;491.02;;;14.60;99.90;;;;;;4976208;28;20198;-75
2022/09/18 11:39:31;;;;;;;684.20;474.75;;;14.60;99.90;;;;;;4970905;28;20201;-75
2022/09/18 11:41:58;;;;;;;692.78;510.42;;;14.60;99.90;;;;;;4985620;28;20197;-76
2022/09/18 11:44:30;;;;;;;689.70;513.35;;;14.60;99.90;;;;;;4978647;28;20217;-75
2022/09/18 11:47:36;;;;;;;683.67;515.17;;;14.60;99.90;;;;;;4964055;28;20569;-74
2022/09/18 11:50:12;;;;;;;680.85;498.25;;;14.60;99.90;;;;;;4899179;29;20231;-76
2022/09/18 11:52:43;;;;;;;679.05;508.35;;;14.60;99.90;;;;;;4890238;29;20306;-73
2022/09/18 11:55:18;;;;;;;676.45;504.65;;;14.60;99.90;;;;;;4938519;28;20220;-76
2022/09/18 11:57:47;;;;;;;679.15;513.63;;;14.60;99.90;;;;;;4975385;28;20200;-76
2022/09/18 12:00:18;;;;;;;671.08;508.27;;;14.60;99.90;;;;;;4966129;28;20212;-76
2022/09/18 12:02:51;;;;;;;662.92;492.27;;;14.60;99.90;;;;;;4977092;28;20208;-75
2022/09/18 12:05:25;;;;;;;669.63;509.92;;;14.60;99.90;;;;;;4991920;28;20200;-75
2022/09/18 12:08:01;;;;;;;695.72;514.47;;;14.60;99.90;;;;;;4973380;28;20194;-76
2022/09/18 12:10:37;;;;;;;701.65;508.48;;;14.60;99.90;;;;;;4976299;28;20201;-78
2022/09/18 12:13:20;;;;;;;695.47;503.08;;;14.60;99.90;;;;;;4971698;28;20213;-74
2022/09/18 12:15:52;;;;;;;691.88;491.58;;;14.60;99.90;;;;;;4958883;28;20249;-74
2022/09/18 12:18:24;;;;;;;696.63;504.75;;;14.50;99.90;;;;;;4966592;28;20692;-74
2022/09/18 12:20:59;;;;;;;688.55;481.67;;;14.50;99.90;;;;;;4963633;28;20194;-75
2022/09/18 12:23:27;;;;;;;687.72;503.52;;;14.50;99.90;;;;;;4973087;28;20209;-74